sensor_id;sensor_type;location;lat;lon;timestamp;pressure;altitude;pressure_sealevel;temperature;humidity
62712;BME280;48772;55.586;37.730;2023-04-26T00:02:13;97989.44;;;12.88;100.00
62712;BME280;48772;55.586;37.730;2023-04-26T00:04:40;97967.97;;;12.74;100.00
62712;BME280;48772;55.586;37.730;2023-04-26T00:07:06;97981.78;;;12.85;100.00
62712;BME280;48772;55.586;37.730;2023-04-26T00:09:32;97978.06;;;12.86;100.00
62712;BME280;48772;55.586;37.730;2023-04-26T00:11:59;97978.63;;;12.82;100.00
62712;BME280;48772;55.586;37.730;2023-04-26T00:14:25;97956.31;;;12.67;100.00
62712;BME280;48772;55.586;37.730;2023-04-26T00:16:51;97967.97;;;12.74;100.00
62712;BME280;48772;55.586;37.730;2023-04-26T00:19:17;97951.44;;;12.70;100.00
62712;BME280;48772;55.586;37.730;2023-04-26T00:21:43;97963.91;;;12.78;100.00
62712;BME280;48772;55.586;37.730;2023-04-26T00:24:09;97967.63;;;12.77;100.00
62712;BME280;48772;55.586;37.730;2023-04-26T00:26:34;97967.97;;;12.74;100.00
62712;BME280;48772;55.586;37.730;2023-04-26T00:29:01;97953.63;;;12.67;100.00
62712;BME280;48772;55.586;37.730;2023-04-26T00:34:12;97959.13;;;12.73;100.00
62712;BME280;48772;55.586;37.730;2023-04-26T00:36:38;97963.81;;;12.71;100.00
62712;BME280;48772;55.586;37.730;2023-04-26T00:39:04;97934.34;;;12.57;100.00
62712;BME280;48772;55.586;37.730;2023-04-26T00:41:30;97927.13;;;12.57;100.00
62712;BME280;48772;55.586;37.730;2023-04-26T00:43:56;97947.13;;;12.69;100.00
62712;BME280;48772;55.586;37.730;2023-04-26T00:46:40;97941.44;;;12.64;100.00
62712;BME280;48772;55.586;37.730;2023-04-26T00:49:25;97942.28;;;12.65;100.00
62712;BME280;48772;55.586;37.730;2023-04-26T00:52:09;97946.44;;;12.67;100.00
62712;BME280;48772;55.586;37.730;2023-04-26T00:55:03;97934.75;;;12.68;100.00
62712;BME280;48772;55.586;37.730;2023-04-26T01:00:15;97931.94;;;12.62;100.00
62712;BME280;48772;55.586;37.730;2023-04-26T01:02:41;97929.63;;;12.59;100.00
62712;BME280;48772;55.586;37.730;2023-04-26T01:05:07;97900.81;;;12.46;100.00
62712;BME280;48772;55.586;37.730;2023-04-26T01:07:35;97920.59;;;12.60;100.00
62712;BME280;48772;55.586;37.730;2023-04-26T01:10:02;97901.66;;;12.47;100.00
62712;BME280;48772;55.586;37.730;2023-04-26T01:12:31;97917.91;;;12.60;100.00
62712;BME280;48772;55.586;37.730;2023-04-26T01:15:01;97909.25;;;12.58;100.00
62712;BME280;48772;55.586;37.730;2023-04-26T01:26:05;97899.09;;;12.53;100.00
62712;BME280;48772;55.586;37.730;2023-04-26T01:28:33;97901.59;;;12.55;100.00
62712;BME280;48772;55.586;37.730;2023-04-26T01:31:17;97880.25;;;12.47;100.00
62712;BME280;48772;55.586;37.730;2023-04-26T01:33:43;97886.22;;;12.57;100.00
62712;BME280;48772;55.586;37.730;2023-04-26T01:36:08;97887.69;;;12.59;100.00
62712;BME280;48772;55.586;37.730;2023-04-26T01:38:37;97873.91;;;12.48;100.00
62712;BME280;48772;55.586;37.730;2023-04-26T01:41:39;97882.50;;;12.58;100.00
62712;BME280;48772;55.586;37.730;2023-04-26T01:46:51;97877.06;;;12.51;100.00
62712;BME280;48772;55.586;37.730;2023-04-26T01:49:17;97862.91;;;12.43;100.00
62712;BME280;48772;55.586;37.730;2023-04-26T01:51:43;97876.91;;;12.45;100.00
62712;BME280;48772;55.586;37.730;2023-04-26T01:54:08;97862.06;;;12.42;100.00
62712;BME280;48772;55.586;37.730;2023-04-26T01:56:34;97856.25;;;12.39;100.00
62712;BME280;48772;55.586;37.730;2023-04-26T01:59:00;97808.66;;;12.12;100.00
62712;BME280;48772;55.586;37.730;2023-04-26T02:01:26;97862.81;;;12.36;100.00
62712;BME280;48772;55.586;37.730;2023-04-26T02:03:52;97839.63;;;12.29;100.00
62712;BME280;48772;55.586;37.730;2023-04-26T02:06:19;97856.72;;;12.42;100.00
62712;BME280;48772;55.586;37.730;2023-04-26T02:08:46;97853.94;;;12.36;100.00
62712;BME280;48772;55.586;37.730;2023-04-26T02:11:12;97853.09;;;12.35;100.00
62712;BME280;48772;55.586;37.730;2023-04-26T02:13:38;97853.28;;;12.34;100.00
62712;BME280;48772;55.586;37.730;2023-04-26T02:16:05;97846.78;;;12.28;100.00
62712;BME280;48772;55.586;37.730;2023-04-26T02:18:32;97812.53;;;12.09;100.00
62712;BME280;48772;55.586;37.730;2023-04-26T02:20:59;97800.06;;;12.02;100.00
62712;BME280;48772;55.586;37.730;2023-04-26T02:23:25;97821.38;;;12.10;100.00
62712;BME280;48772;55.586;37.730;2023-04-26T02:25:51;97849.66;;;12.27;100.00
62712;BME280;48772;55.586;37.730;2023-04-26T02:28:16;97803.72;;;12.01;100.00
62712;BME280;48772;55.586;37.730;2023-04-26T02:30:43;97820.03;;;12.14;100.00
62712;BME280;48772;55.586;37.730;2023-04-26T02:33:10;97841.00;;;12.25;100.00
62712;BME280;48772;55.586;37.730;2023-04-26T02:35:36;97844.69;;;12.24;100.00
62712;BME280;48772;55.586;37.730;2023-04-26T02:38:03;97813.25;;;12.03;100.00
62712;BME280;48772;55.586;37.730;2023-04-26T02:40:29;97835.66;;;12.25;100.00
62712;BME280;48772;55.586;37.730;2023-04-26T02:42:55;97835.94;;;12.30;100.00
62712;BME280;48772;55.586;37.730;2023-04-26T02:45:22;97831.94;;;12.26;100.00
62712;BME280;48772;55.586;37.730;2023-04-26T02:47:48;97827.28;;;12.28;100.00
62712;BME280;48772;55.586;37.730;2023-04-26T02:50:13;97829.59;;;12.31;100.00
62712;BME280;48772;55.586;37.730;2023-04-26T02:52:39;97829.59;;;12.31;100.00
62712;BME280;48772;55.586;37.730;2023-04-26T02:55:06;97798.66;;;12.14;100.00
62712;BME280;48772;55.586;37.730;2023-04-26T02:57:31;97828.59;;;12.32;100.00
62712;BME280;48772;55.586;37.730;2023-04-26T02:59:58;97817.41;;;12.28;100.00
62712;BME280;48772;55.586;37.730;2023-04-26T03:02:24;97805.28;;;12.18;100.00
62712;BME280;48772;55.586;37.730;2023-04-26T03:04:50;97813.56;;;12.31;100.00
62712;BME280;48772;55.586;37.730;2023-04-26T03:07:16;97819.91;;;12.30;100.00
62712;BME280;48772;55.586;37.730;2023-04-26T03:09:42;97793.94;;;12.16;100.00
62712;BME280;48772;55.586;37.730;2023-04-26T03:12:08;97805.06;;;12.27;100.00
62712;BME280;48772;55.586;37.730;2023-04-26T03:14:35;97791.28;;;12.16;100.00
62712;BME280;48772;55.586;37.730;2023-04-26T03:17:01;97812.91;;;12.29;100.00
62712;BME280;48772;55.586;37.730;2023-04-26T03:19:28;97805.16;;;12.34;100.00
62712;BME280;48772;55.586;37.730;2023-04-26T03:21:55;97796.34;;;12.33;100.00
62712;BME280;48772;55.586;37.730;2023-04-26T03:24:21;97796.16;;;12.35;100.00
62712;BME280;48772;55.586;37.730;2023-04-26T03:26:48;97777.22;;;12.22;100.00
62712;BME280;48772;55.586;37.730;2023-04-26T03:29:15;97788.31;;;12.33;100.00
62712;BME280;48772;55.586;37.730;2023-04-26T03:31:41;97784.81;;;12.33;100.00
62712;BME280;48772;55.586;37.730;2023-04-26T03:34:07;97777.50;;;12.27;100.00
62712;BME280;48772;55.586;37.730;2023-04-26T03:36:33;97784.34;;;12.29;100.00
62712;BME280;48772;55.586;37.730;2023-04-26T03:39:00;97749.38;;;12.16;100.00
62712;BME280;48772;55.586;37.730;2023-04-26T03:41:25;97758.03;;;12.18;100.00
62712;BME280;48772;55.586;37.730;2023-04-26T03:43:53;97779.75;;;12.38;100.00
62712;BME280;48772;55.586;37.730;2023-04-26T03:46:18;97759.69;;;12.19;100.00
62712;BME280;48772;55.586;37.730;2023-04-26T03:48:46;97778.81;;;12.31;100.00
62712;BME280;48772;55.586;37.730;2023-04-26T03:51:12;97695.72;;;11.81;100.00
62712;BME280;48772;55.586;37.730;2023-04-26T03:53:38;97783.44;;;12.37;100.00
62712;BME280;48772;55.586;37.730;2023-04-26T03:56:04;97772.22;;;12.41;100.00
62712;BME280;48772;55.586;37.730;2023-04-26T03:58:32;97780.69;;;12.45;100.00
62712;BME280;48772;55.586;37.730;2023-04-26T04:00:57;97778.41;;;12.42;100.00
62712;BME280;48772;55.586;37.730;2023-04-26T04:03:23;97773.41;;;12.39;100.00
62712;BME280;48772;55.586;37.730;2023-04-26T04:05:50;97730.19;;;12.13;100.00
62712;BME280;48772;55.586;37.730;2023-04-26T04:08:16;97774.88;;;12.41;100.00
62712;BME280;48772;55.586;37.730;2023-04-26T04:10:43;97773.22;;;12.40;100.00
62712;BME280;48772;55.586;37.730;2023-04-26T04:13:09;97738.16;;;12.21;100.00
62712;BME280;48772;55.586;37.730;2023-04-26T04:15:35;97765.75;;;12.36;100.00
62712;BME280;48772;55.586;37.730;2023-04-26T04:18:01;97762.06;;;12.37;100.00
62712;BME280;48772;55.586;37.730;2023-04-26T04:20:26;97763.69;;;12.38;100.00
62712;BME280;48772;55.586;37.730;2023-04-26T04:22:55;97766.16;;;12.47;100.00
62712;BME280;48772;55.586;37.730;2023-04-26T04:25:22;97742.53;;;12.36;100.00
62712;BME280;48772;55.586;37.730;2023-04-26T04:27:48;97764.97;;;12.50;100.00
62712;BME280;48772;55.586;37.730;2023-04-26T04:30:15;97766.25;;;12.54;100.00
62712;BME280;48772;55.586;37.730;2023-04-26T04:32:41;97761.44;;;12.49;100.00
62712;BME280;48772;55.586;37.730;2023-04-26T04:35:12;97760.25;;;12.52;100.00
62712;BME280;48772;55.586;37.730;2023-04-26T04:37:39;97764.38;;;12.54;100.00
62712;BME280;48772;55.586;37.730;2023-04-26T04:40:05;97768.19;;;12.60;100.00
62712;BME280;48772;55.586;37.730;2023-04-26T04:42:34;97757.38;;;12.53;100.00
62712;BME280;48772;55.586;37.730;2023-04-26T04:45:02;97746.31;;;12.42;100.00
62712;BME280;48772;55.586;37.730;2023-04-26T04:47:31;97759.16;;;12.61;100.00
62712;BME280;48772;55.586;37.730;2023-04-26T04:49:58;97738.56;;;12.47;100.00
62712;BME280;48772;55.586;37.730;2023-04-26T04:52:25;97772.81;;;12.66;100.00
62712;BME280;48772;55.586;37.730;2023-04-26T04:54:51;97761.50;;;12.64;100.00
62712;BME280;48772;55.586;37.730;2023-04-26T04:57:17;97752.88;;;12.54;100.00
62712;BME280;48772;55.586;37.730;2023-04-26T04:59:45;97763.22;;;12.57;100.00
62712;BME280;48772;55.586;37.730;2023-04-26T05:02:11;97750.38;;;12.52;100.00
62712;BME280;48772;55.586;37.730;2023-04-26T05:04:37;97735.06;;;12.46;100.00
62712;BME280;48772;55.586;37.730;2023-04-26T05:07:04;97765.06;;;12.71;100.00
62712;BME280;48772;55.586;37.730;2023-04-26T05:09:32;97766.84;;;12.64;100.00
62712;BME280;48772;55.586;37.730;2023-04-26T05:11:58;97748.00;;;12.57;100.00
62712;BME280;48772;55.586;37.730;2023-04-26T05:14:24;97764.06;;;12.72;100.00
62712;BME280;48772;55.586;37.730;2023-04-26T05:16:50;97763.06;;;12.73;100.00
62712;BME280;48772;55.586;37.730;2023-04-26T05:19:16;97758.41;;;12.67;100.00
62712;BME280;48772;55.586;37.730;2023-04-26T05:21:43;97737.97;;;12.59;100.00
62712;BME280;48772;55.586;37.730;2023-04-26T05:24:10;97752.72;;;12.70;100.00
62712;BME280;48772;55.586;37.730;2023-04-26T05:26:36;97755.03;;;12.73;100.00
62712;BME280;48772;55.586;37.730;2023-04-26T05:29:34;97757.00;;;12.79;100.00
62712;BME280;48772;55.586;37.730;2023-04-26T05:32:05;97764.66;;;12.82;100.00
62712;BME280;48772;55.586;37.730;2023-04-26T05:34:40;97748.88;;;12.87;100.00
62712;BME280;48772;55.586;37.730;2023-04-26T05:37:09;97734.09;;;12.76;100.00
62712;BME280;48772;55.586;37.730;2023-04-26T05:39:36;97750.53;;;12.88;100.00
62712;BME280;48772;55.586;37.730;2023-04-26T05:42:02;97761.81;;;12.98;100.00
62712;BME280;48772;55.586;37.730;2023-04-26T05:44:29;97762.38;;;13.08;100.00
62712;BME280;48772;55.586;37.730;2023-04-26T05:46:55;97761.81;;;13.12;100.00
62712;BME280;48772;55.586;37.730;2023-04-26T05:49:23;97725.06;;;12.92;100.00
62712;BME280;48772;55.586;37.730;2023-04-26T05:51:49;97762.56;;;13.21;100.00
62712;BME280;48772;55.586;37.730;2023-04-26T05:57:00;97758.84;;;13.22;100.00
62712;BME280;48772;55.586;37.730;2023-04-26T05:59:27;97743.94;;;13.13;100.00
62712;BME280;48772;55.586;37.730;2023-04-26T06:01:57;97762.19;;;13.24;100.00
62712;BME280;48772;55.586;37.730;2023-04-26T06:04:23;97755.91;;;13.17;100.00
62712;BME280;48772;55.586;37.730;2023-04-26T06:07:01;97762.91;;;13.18;100.00
62712;BME280;48772;55.586;37.730;2023-04-26T06:09:27;97768.84;;;13.28;100.00
62712;BME280;48772;55.586;37.730;2023-04-26T06:11:55;97767.63;;;13.30;100.00
62712;BME280;48772;55.586;37.730;2023-04-26T06:14:21;97772.16;;;13.30;100.00
62712;BME280;48772;55.586;37.730;2023-04-26T06:16:47;97770.88;;;13.26;100.00
62712;BME280;48772;55.586;37.730;2023-04-26T06:19:13;97743.66;;;13.08;100.00
62712;BME280;48772;55.586;37.730;2023-04-26T06:21:39;97754.63;;;13.13;100.00
62712;BME280;48772;55.586;37.730;2023-04-26T06:24:06;97763.31;;;13.15;100.00
62712;BME280;48772;55.586;37.730;2023-04-26T06:26:31;97765.59;;;13.18;100.00
62712;BME280;48772;55.586;37.730;2023-04-26T06:28:57;97774.47;;;13.18;100.00
62712;BME280;48772;55.586;37.730;2023-04-26T06:31:24;97765.22;;;13.21;100.00
62712;BME280;48772;55.586;37.730;2023-04-26T06:33:51;97768.09;;;13.19;100.00
62712;BME280;48772;55.586;37.730;2023-04-26T06:36:17;97756.94;;;13.16;100.00
62712;BME280;48772;55.586;37.730;2023-04-26T06:38:42;97770.78;;;13.34;100.00
62712;BME280;48772;55.586;37.730;2023-04-26T06:41:08;97782.41;;;13.41;100.00
62712;BME280;48772;55.586;37.730;2023-04-26T06:43:34;97785.44;;;13.38;100.00
62712;BME280;48772;55.586;37.730;2023-04-26T06:46:17;97785.09;;;13.41;100.00
62712;BME280;48772;55.586;37.730;2023-04-26T06:48:48;97752.69;;;13.21;100.00
62712;BME280;48772;55.586;37.730;2023-04-26T06:51:17;97723.25;;;13.07;100.00
62712;BME280;48772;55.586;37.730;2023-04-26T06:53:42;97760.81;;;13.28;100.00
62712;BME280;48772;55.586;37.730;2023-04-26T06:56:08;97789.03;;;13.45;100.00
62712;BME280;48772;55.586;37.730;2023-04-26T06:58:34;97769.31;;;13.32;100.00
62712;BME280;48772;55.586;37.730;2023-04-26T07:01:00;97782.69;;;13.32;100.00
62712;BME280;48772;55.586;37.730;2023-04-26T07:03:27;97789.34;;;13.36;100.00
62712;BME280;48772;55.586;37.730;2023-04-26T07:05:54;97781.13;;;13.37;100.00
62712;BME280;48772;55.586;37.730;2023-04-26T07:08:21;97783.69;;;13.45;100.00
62712;BME280;48772;55.586;37.730;2023-04-26T07:10:47;97781.94;;;13.52;100.00
62712;BME280;48772;55.586;37.730;2023-04-26T07:13:12;97786.53;;;13.58;100.00
62712;BME280;48772;55.586;37.730;2023-04-26T07:15:38;97797.78;;;13.68;100.00
62712;BME280;48772;55.586;37.730;2023-04-26T07:18:04;97797.84;;;13.75;100.00
62712;BME280;48772;55.586;37.730;2023-04-26T07:20:29;97771.84;;;13.69;100.00
62712;BME280;48772;55.586;37.730;2023-04-26T07:22:55;97797.28;;;13.79;100.00
62712;BME280;48772;55.586;37.730;2023-04-26T07:25:21;97772.09;;;13.74;100.00
62712;BME280;48772;55.586;37.730;2023-04-26T07:27:47;97805.50;;;13.92;100.00
62712;BME280;48772;55.586;37.730;2023-04-26T07:30:12;97798.63;;;13.90;100.00
62712;BME280;48772;55.586;37.730;2023-04-26T07:32:38;97805.50;;;13.92;100.00
62712;BME280;48772;55.586;37.730;2023-04-26T07:35:05;97787.00;;;13.97;100.00
62712;BME280;48772;55.586;37.730;2023-04-26T07:37:42;97777.69;;;13.93;100.00
62712;BME280;48772;55.586;37.730;2023-04-26T07:40:09;97805.03;;;13.89;100.00
62712;BME280;48772;55.586;37.730;2023-04-26T07:42:35;97781.81;;;13.60;100.00
62712;BME280;48772;55.586;37.730;2023-04-26T07:45:01;97779.75;;;13.62;100.00
62712;BME280;48772;55.586;37.730;2023-04-26T07:47:31;97800.34;;;13.76;100.00
62712;BME280;48772;55.586;37.730;2023-04-26T07:49:57;97791.22;;;13.71;100.00
62712;BME280;48772;55.586;37.730;2023-04-26T07:52:23;97799.53;;;13.76;100.00
62712;BME280;48772;55.586;37.730;2023-04-26T07:54:48;97789.38;;;13.57;100.00
62712;BME280;48772;55.586;37.730;2023-04-26T07:57:14;97812.19;;;13.67;100.00
62712;BME280;48772;55.586;37.730;2023-04-26T07:59:41;97816.53;;;13.68;100.00
62712;BME280;48772;55.586;37.730;2023-04-26T08:02:07;97788.94;;;13.53;100.00
62712;BME280;48772;55.586;37.730;2023-04-26T08:04:33;97817.72;;;13.51;100.00
62712;BME280;48772;55.586;37.730;2023-04-26T08:07:00;97817.72;;;13.51;100.00
62712;BME280;48772;55.586;37.730;2023-04-26T08:09:27;97818.50;;;13.45;100.00
62712;BME280;48772;55.586;37.730;2023-04-26T08:11:54;97820.81;;;13.48;100.00
62712;BME280;48772;55.586;37.730;2023-04-26T08:14:20;97820.06;;;13.40;100.00
62712;BME280;48772;55.586;37.730;2023-04-26T08:16:45;97805.38;;;13.21;100.00
62712;BME280;48772;55.586;37.730;2023-04-26T08:19:11;97809.34;;;13.25;100.00
62712;BME280;48772;55.586;37.730;2023-04-26T08:21:37;97818.31;;;13.32;100.00
62712;BME280;48772;55.586;37.730;2023-04-26T08:24:03;97834.75;;;13.44;100.00
62712;BME280;48772;55.586;37.730;2023-04-26T08:26:29;97826.63;;;13.37;100.00
62712;BME280;48772;55.586;37.730;2023-04-26T08:28:56;97826.22;;;13.40;100.00
62712;BME280;48772;55.586;37.730;2023-04-26T08:31:22;97841.66;;;13.53;100.00
62712;BME280;48772;55.586;37.730;2023-04-26T08:33:48;97817.94;;;13.35;100.00
62712;BME280;48772;55.586;37.730;2023-04-26T08:36:13;97840.63;;;13.68;100.00
62712;BME280;48772;55.586;37.730;2023-04-26T08:38:39;97840.88;;;13.88;100.00
62712;BME280;48772;55.586;37.730;2023-04-26T08:41:08;97835.22;;;13.97;100.00
62712;BME280;48772;55.586;37.730;2023-04-26T08:43:38;97844.53;;;14.01;100.00
62712;BME280;48772;55.586;37.730;2023-04-26T08:46:06;97820.25;;;13.88;100.00
62712;BME280;48772;55.586;37.730;2023-04-26T08:48:35;97831.81;;;14.03;100.00
62712;BME280;48772;55.586;37.730;2023-04-26T08:51:02;97830.31;;;14.01;100.00
62712;BME280;48772;55.586;37.730;2023-04-26T08:53:30;97837.78;;;14.05;100.00
62712;BME280;48772;55.586;37.730;2023-04-26T08:55:59;97841.25;;;14.20;100.00
62712;BME280;48772;55.586;37.730;2023-04-26T08:58:26;97837.56;;;14.21;100.00
62712;BME280;48772;55.586;37.730;2023-04-26T09:00:53;97817.44;;;14.11;100.00
62712;BME280;48772;55.586;37.730;2023-04-26T09:03:21;97825.22;;;14.06;100.00
62712;BME280;48772;55.586;37.730;2023-04-26T09:05:47;97850.69;;;14.16;100.00
62712;BME280;48772;55.586;37.730;2023-04-26T09:08:15;97855.25;;;14.16;100.00
62712;BME280;48772;55.586;37.730;2023-04-26T09:10:44;97855.75;;;13.90;100.00
62712;BME280;48772;55.586;37.730;2023-04-26T09:13:10;97858.31;;;13.98;100.00
62712;BME280;48772;55.586;37.730;2023-04-26T09:15:37;97831.88;;;13.95;100.00
62712;BME280;48772;55.586;37.730;2023-04-26T09:18:16;97837.34;;;14.02;100.00
62712;BME280;48772;55.586;37.730;2023-04-26T09:20:43;97849.81;;;14.24;100.00
62712;BME280;48772;55.586;37.730;2023-04-26T09:23:09;97864.94;;;14.52;100.00
62712;BME280;48772;55.586;37.730;2023-04-26T09:25:37;97868.78;;;14.64;100.00
62712;BME280;48772;55.586;37.730;2023-04-26T09:28:04;97855.81;;;14.68;100.00
62712;BME280;48772;55.586;37.730;2023-04-26T09:30:43;97851.78;;;14.78;100.00
62712;BME280;48772;55.586;37.730;2023-04-26T09:33:09;97845.09;;;14.68;100.00
62712;BME280;48772;55.586;37.730;2023-04-26T09:35:35;97840.53;;;14.68;100.00
62712;BME280;48772;55.586;37.730;2023-04-26T09:40:46;97858.97;;;14.78;100.00
62712;BME280;48772;55.586;37.730;2023-04-26T09:43:17;97859.22;;;14.76;100.00
62712;BME280;48772;55.586;37.730;2023-04-26T09:48:31;97875.16;;;14.84;100.00
62712;BME280;48772;55.586;37.730;2023-04-26T09:56:13;97874.00;;;14.72;100.00
62712;BME280;48772;55.586;37.730;2023-04-26T10:01:13;97890.63;;;14.82;100.00
62712;BME280;48772;55.586;37.730;2023-04-26T10:03:40;97861.66;;;14.78;100.00
62712;BME280;48772;55.586;37.730;2023-04-26T10:06:07;97869.38;;;14.60;100.00
62712;BME280;48772;55.586;37.730;2023-04-26T10:08:34;97879.88;;;14.40;100.00
62712;BME280;48772;55.586;37.730;2023-04-26T10:11:12;97855.09;;;13.88;100.00
62712;BME280;48772;55.586;37.730;2023-04-26T10:13:40;97906.38;;;14.14;100.00
62712;BME280;48772;55.586;37.730;2023-04-26T10:16:06;97904.22;;;14.24;100.00
62712;BME280;48772;55.586;37.730;2023-04-26T10:18:35;97886.56;;;14.30;100.00
62712;BME280;48772;55.586;37.730;2023-04-26T10:21:06;97903.72;;;14.50;100.00
62712;BME280;48772;55.586;37.730;2023-04-26T10:23:37;97922.88;;;14.89;100.00
62712;BME280;48772;55.586;37.730;2023-04-26T10:26:05;97914.63;;;14.90;100.00
62712;BME280;48772;55.586;37.730;2023-04-26T10:28:52;97929.97;;;14.96;100.00
62712;BME280;48772;55.586;37.730;2023-04-26T10:31:18;97917.41;;;14.97;100.00
62712;BME280;48772;55.586;37.730;2023-04-26T10:33:43;97918.34;;;15.10;100.00
62712;BME280;48772;55.586;37.730;2023-04-26T10:36:29;97916.81;;;15.01;100.00
62712;BME280;48772;55.586;37.730;2023-04-26T10:39:18;97934.50;;;15.38;100.00
62712;BME280;48772;55.586;37.730;2023-04-26T10:41:46;97919.09;;;15.25;100.00
62712;BME280;48772;55.586;37.730;2023-04-26T10:50:00;97919.25;;;14.96;100.00
62712;BME280;48772;55.586;37.730;2023-04-26T10:52:29;97912.34;;;14.87;100.00
62712;BME280;48772;55.586;37.730;2023-04-26T10:54:56;97941.47;;;14.90;100.00
62712;BME280;48772;55.586;37.730;2023-04-26T10:57:51;97949.16;;;14.93;100.00
62712;BME280;48772;55.586;37.730;2023-04-26T11:00:19;97947.75;;;14.97;100.00
62712;BME280;48772;55.586;37.730;2023-04-26T11:02:52;97953.03;;;14.91;100.00
62712;BME280;48772;55.586;37.730;2023-04-26T11:05:40;97939.56;;;14.84;100.00
62712;BME280;48772;55.586;37.730;2023-04-26T11:08:15;97935.63;;;14.80;100.00
62712;BME280;48772;55.586;37.730;2023-04-26T11:10:44;97916.16;;;14.57;100.00
62712;BME280;48772;55.586;37.730;2023-04-26T11:13:10;97945.28;;;14.60;100.00
62712;BME280;48772;55.586;37.730;2023-04-26T11:15:51;97962.09;;;14.33;100.00
62712;BME280;48772;55.586;37.730;2023-04-26T11:18:20;97955.81;;;14.26;100.00
62712;BME280;48772;55.586;37.730;2023-04-26T11:20:47;97944.81;;;14.21;100.00
62712;BME280;48772;55.586;37.730;2023-04-26T11:23:13;97966.81;;;14.31;100.00
62712;BME280;48772;55.586;37.730;2023-04-26T11:25:39;97962.72;;;14.06;100.00
62712;BME280;48772;55.586;37.730;2023-04-26T11:28:05;97976.72;;;14.02;100.00
62712;BME280;48772;55.586;37.730;2023-04-26T11:30:31;97943.44;;;13.67;100.00
62712;BME280;48772;55.586;37.730;2023-04-26T11:32:58;97961.28;;;13.89;100.00
62712;BME280;48772;55.586;37.730;2023-04-26T11:35:25;97973.75;;;14.26;100.00
62712;BME280;48772;55.586;37.730;2023-04-26T11:37:52;97989.06;;;14.61;100.00
62712;BME280;48772;55.586;37.730;2023-04-26T11:40:18;97976.38;;;15.11;100.00
62712;BME280;48772;55.586;37.730;2023-04-26T11:42:46;97930.59;;;15.19;100.00
62712;BME280;48772;55.586;37.730;2023-04-26T11:45:14;97985.63;;;15.78;100.00
62712;BME280;48772;55.586;37.730;2023-04-26T11:47:42;97964.72;;;16.01;100.00
62712;BME280;48772;55.586;37.730;2023-04-26T11:50:08;97912.78;;;15.60;100.00
62712;BME280;48772;55.586;37.730;2023-04-26T11:52:35;97961.03;;;15.75;100.00
62712;BME280;48772;55.586;37.730;2023-04-26T11:55:06;97969.63;;;15.91;100.00
62712;BME280;48772;55.586;37.730;2023-04-26T11:57:33;97957.66;;;16.00;100.00
62712;BME280;48772;55.586;37.730;2023-04-26T12:00:12;97960.44;;;16.13;100.00
62712;BME280;48772;55.586;37.730;2023-04-26T12:02:45;97978.06;;;16.63;100.00
62712;BME280;48772;55.586;37.730;2023-04-26T12:05:24;97979.81;;;16.90;100.00
62712;BME280;48772;55.586;37.730;2023-04-26T12:07:55;97962.69;;;17.24;100.00
62712;BME280;48772;55.586;37.730;2023-04-26T12:10:25;97980.34;;;17.52;100.00
62712;BME280;48772;55.586;37.730;2023-04-26T12:12:52;97966.84;;;17.72;100.00
62712;BME280;48772;55.586;37.730;2023-04-26T12:15:32;97978.06;;;17.43;100.00
62712;BME280;48772;55.586;37.730;2023-04-26T12:18:07;97962.47;;;17.32;100.00
62712;BME280;48772;55.586;37.730;2023-04-26T12:20:37;97971.84;;;17.62;100.00
62712;BME280;48772;55.586;37.730;2023-04-26T12:23:04;97982.19;;;17.84;100.00
62712;BME280;48772;55.586;37.730;2023-04-26T12:25:31;97966.88;;;17.65;100.00
62712;BME280;48772;55.586;37.730;2023-04-26T12:27:58;97944.47;;;17.45;100.00
62712;BME280;48772;55.586;37.730;2023-04-26T12:30:26;97967.66;;;17.40;100.00
62712;BME280;48772;55.586;37.730;2023-04-26T12:33:01;97966.22;;;17.31;100.00
62712;BME280;48772;55.586;37.730;2023-04-26T12:35:28;97968.28;;;17.09;100.00
62712;BME280;48772;55.586;37.730;2023-04-26T12:37:53;97988.91;;;16.76;100.00
62712;BME280;48772;55.586;37.730;2023-04-26T12:40:22;98000.56;;;16.42;100.00
62712;BME280;48772;55.586;37.730;2023-04-26T12:42:49;97993.44;;;16.35;100.00
62712;BME280;48772;55.586;37.730;2023-04-26T12:45:16;97967.25;;;16.09;100.00
62712;BME280;48772;55.586;37.730;2023-04-26T12:47:45;97994.63;;;16.19;100.00
62712;BME280;48772;55.586;37.730;2023-04-26T12:50:12;97981.63;;;15.95;100.00
62712;BME280;48772;55.586;37.730;2023-04-26T12:52:39;97999.25;;;16.38;100.00
62712;BME280;48772;55.586;37.730;2023-04-26T12:55:12;97998.81;;;16.76;100.00
62712;BME280;48772;55.586;37.730;2023-04-26T12:57:40;97996.69;;;17.31;100.00
62712;BME280;48772;55.586;37.730;2023-04-26T13:00:10;97982.00;;;17.73;100.00
62712;BME280;48772;55.586;37.730;2023-04-26T13:02:37;97975.09;;;18.22;100.00
62712;BME280;48772;55.586;37.730;2023-04-26T13:05:04;97979.16;;;18.51;100.00
62712;BME280;48772;55.586;37.730;2023-04-26T13:07:33;97983.66;;;18.70;100.00
62712;BME280;48772;55.586;37.730;2023-04-26T13:10:01;97999.00;;;18.76;100.00
62712;BME280;48772;55.586;37.730;2023-04-26T13:12:29;97996.69;;;18.79;100.00
62712;BME280;48772;55.586;37.730;2023-04-26T13:14:55;97978.72;;;18.60;100.00
62712;BME280;48772;55.586;37.730;2023-04-26T13:17:23;98008.50;;;18.85;100.00
62712;BME280;48772;55.586;37.730;2023-04-26T13:19:50;97977.03;;;18.66;100.00
62712;BME280;48772;55.586;37.730;2023-04-26T13:22:18;97978.63;;;18.80;100.00
62712;BME280;48772;55.586;37.730;2023-04-26T13:24:44;98001.84;;;18.94;100.00